Time;durP1;ratioP1;P1;durP2;ratioP2;P2;SDS_P1;SDS_P2;PMS_P1;PMS_P2;Temp;Humidity;BMP_temperature;BMP_pressure;BME280_temperature;BME280_humidity;BME280_pressure;Samples;Min_cycle;Max_cycle;Signal;HPM_P1;HPM_P2
2023/11/21 00:01:17;;;;;;;5.13;1.10;;;18.40;55.40;;;;;;5052140;28;20188;-58
2023/11/21 00:03:44;;;;;;;2.25;1.20;;;18.40;55.40;;;;;;5052365;28;20247;-60
2023/11/21 00:06:11;;;;;;;2.25;0.93;;;18.40;55.40;;;;;;5052138;28;20195;-60
2023/11/21 00:08:39;;;;;;;4.43;1.33;;;18.40;55.30;;;;;;5052264;28;20219;-60
2023/11/21 00:11:06;;;;;;;2.72;1.15;;;18.40;55.30;;;;;;5052545;28;20218;-61
2023/11/21 00:13:33;;;;;;;2.55;1.08;;;18.40;55.30;;;;;;5052311;28;20330;-60
2023/11/21 00:16:00;;;;;;;5.40;1.20;;;18.40;55.30;;;;;;5052214;28;20258;-60
2023/11/21 00:18:27;;;;;;;2.33;1.20;;;18.40;55.30;;;;;;5052247;28;20258;-62
2023/11/21 00:20:54;;;;;;;4.57;1.20;;;18.40;55.30;;;;;;5051903;28;20561;-60
2023/11/21 00:23:21;;;;;;;3.22;1.23;;;18.40;55.30;;;;;;5051918;28;20707;-59
2023/11/21 00:25:49;;;;;;;2.45;1.02;;;18.40;55.30;;;;;;5052177;28;20227;-59
2023/11/21 00:28:17;;;;;;;3.28;0.95;;;18.40;55.30;;;;;;5051776;28;20696;-60
2023/11/21 00:30:44;;;;;;;4.15;1.30;;;18.40;55.30;;;;;;5052126;28;20270;-61
2023/11/21 00:33:11;;;;;;;2.53;1.05;;;18.30;55.10;;;;;;5051701;28;20222;-60
2023/11/21 00:35:38;;;;;;;2.60;1.00;;;18.40;55.20;;;;;;5052040;28;20238;-61
2023/11/21 00:38:05;;;;;;;7.35;1.20;;;18.30;55.20;;;;;;5052009;28;20302;-59
2023/11/21 00:40:32;;;;;;;4.03;1.08;;;18.40;55.30;;;;;;5051945;28;20560;-60
2023/11/21 00:43:00;;;;;;;2.60;0.88;;;18.30;55.10;;;;;;5052017;28;20274;-60
2023/11/21 00:45:27;;;;;;;5.13;1.25;;;18.30;55.10;;;;;;5051605;28;20688;-61
2023/11/21 00:47:54;;;;;;;2.47;1.05;;;18.30;55.10;;;;;;5051910;28;20271;-60
2023/11/21 00:50:22;;;;;;;2.05;0.80;;;18.30;55.10;;;;;;5051536;28;20555;-59
2023/11/21 00:52:51;;;;;;;2.03;1.05;;;18.30;55.10;;;;;;5051514;28;20223;-60
2023/11/21 00:55:18;;;;;;;2.90;1.10;;;18.30;55.10;;;;;;5051797;28;20215;-59
2023/11/21 00:57:45;;;;;;;4.85;1.15;;;18.30;55.10;;;;;;5051825;28;20188;-58
2023/11/21 01:00:17;;;;;;;3.65;1.10;;;18.30;55.10;;;;;;5051465;28;20574;-60
2023/11/21 01:02:44;;;;;;;5.10;1.10;;;18.30;55.10;;;;;;5055397;28;20195;-59
2023/11/21 01:05:11;;;;;;;4.30;1.23;;;18.30;55.00;;;;;;5055527;28;20215;-59
2023/11/21 01:07:38;;;;;;;5.20;1.30;;;18.30;55.00;;;;;;5055417;28;20602;-60
2023/11/21 01:10:07;;;;;;;3.20;1.30;;;18.30;55.00;;;;;;5055573;28;20221;-60
2023/11/21 01:12:35;;;;;;;5.00;1.10;;;18.30;55.00;;;;;;5055467;28;20192;-58
2023/11/21 01:15:02;;;;;;;3.47;1.13;;;18.30;55.00;;;;;;5055483;28;20232;-60
2023/11/21 01:17:30;;;;;;;5.40;1.10;;;18.30;55.10;;;;;;5055377;28;20216;-62
2023/11/21 01:19:57;;;;;;;3.78;1.20;;;18.30;55.10;;;;;;5055412;28;20247;-60
2023/11/21 01:22:26;;;;;;;3.92;1.33;;;18.30;55.00;;;;;;5053186;28;20654;-60
2023/11/21 01:24:53;;;;;;;3.28;1.58;;;18.30;55.00;;;;;;5055031;28;20224;-60
2023/11/21 01:27:20;;;;;;;4.60;1.23;;;18.30;55.00;;;;;;5054754;28;20684;-60
2023/11/21 01:29:47;;;;;;;3.08;1.02;;;18.20;54.90;;;;;;5054965;28;20660;-60
2023/11/21 01:32:14;;;;;;;1.83;0.98;;;18.20;54.90;;;;;;5055002;28;20230;-60
2023/11/21 01:34:42;;;;;;;2.88;1.00;;;18.20;54.90;;;;;;5054830;28;20764;-60
2023/11/21 01:37:11;;;;;;;3.35;1.15;;;18.20;54.90;;;;;;5055015;28;20275;-61
2023/11/21 01:39:38;;;;;;;2.05;1.10;;;18.20;54.90;;;;;;5055036;28;20219;-60
2023/11/21 01:42:07;;;;;;;3.60;0.90;;;18.20;54.80;;;;;;5054935;28;20192;-61
2023/11/21 01:44:34;;;;;;;2.83;1.00;;;18.20;54.80;;;;;;5054630;28;20611;-60
2023/11/21 01:47:04;;;;;;;3.58;0.98;;;18.20;54.80;;;;;;5054881;28;20298;-60
2023/11/21 01:49:32;;;;;;;1.77;0.98;;;18.20;54.80;;;;;;5054781;28;20255;-58
2023/11/21 01:52:00;;;;;;;5.00;1.20;;;18.20;54.80;;;;;;5054472;28;20283;-60
2023/11/21 01:54:31;;;;;;;3.92;1.10;;;18.20;54.80;;;;;;5054696;28;20245;-60
2023/11/21 01:57:02;;;;;;;2.72;1.00;;;18.20;54.80;;;;;;5054675;28;20195;-60
2023/11/21 01:59:36;;;;;;;3.50;1.10;;;18.20;54.80;;;;;;5054377;28;20768;-61
2023/11/21 02:02:04;;;;;;;2.70;0.90;;;18.20;54.80;;;;;;5054573;28;20196;-60
2023/11/21 02:04:32;;;;;;;2.80;1.25;;;18.20;54.80;;;;;;5054314;28;20247;-60
2023/11/21 02:07:00;;;;;;;4.70;1.25;;;18.20;54.80;;;;;;5054151;28;20232;-59
2023/11/21 02:09:29;;;;;;;3.95;1.17;;;18.20;54.80;;;;;;5054562;28;20306;-58
2023/11/21 02:11:56;;;;;;;3.78;0.98;;;18.20;55.00;;;;;;5053980;28;20191;-58
2023/11/21 02:14:24;;;;;;;3.95;1.02;;;18.10;54.70;;;;;;5054117;28;20765;-60
2023/11/21 02:16:52;;;;;;;5.40;1.15;;;18.20;54.80;;;;;;5054172;28;20227;-60
2023/11/21 02:19:22;;;;;;;2.00;1.00;;;18.20;54.80;;;;;;5054271;28;20310;-61
2023/11/21 02:21:51;;;;;;;4.03;1.00;;;18.20;54.70;;;;;;5053851;28;20612;-59
2023/11/21 02:24:20;;;;;;;2.72;0.93;;;18.10;54.60;;;;;;5054183;28;20547;-59
2023/11/21 02:26:47;;;;;;;1.90;0.77;;;18.20;54.70;;;;;;5053782;28;20196;-60
2023/11/21 02:29:16;;;;;;;2.95;1.05;;;18.20;54.70;;;;;;5053979;28;20281;-59
2023/11/21 02:31:47;;;;;;;3.28;1.00;;;18.20;54.70;;;;;;5054013;28;20242;-60
2023/11/21 02:34:15;;;;;;;2.88;1.20;;;18.20;54.70;;;;;;5053921;28;20222;-60
2023/11/21 02:36:43;;;;;;;3.53;0.93;;;18.20;54.70;;;;;;5053835;28;20299;-61
2023/11/21 02:39:10;;;;;;;3.38;1.30;;;18.20;54.70;;;;;;5053848;28;20220;-60
2023/11/21 02:41:39;;;;;;;3.33;1.15;;;18.10;54.60;;;;;;5053765;28;20267;-59
2023/11/21 02:44:07;;;;;;;3.85;1.05;;;18.20;54.60;;;;;;5053807;28;20223;-60
2023/11/21 02:46:34;;;;;;;4.65;1.15;;;18.10;54.50;;;;;;5053311;28;20191;-60
2023/11/21 02:49:01;;;;;;;3.28;1.20;;;18.10;54.50;;;;;;5053313;28;20597;-58
2023/11/21 02:51:29;;;;;;;3.30;1.20;;;18.10;54.50;;;;;;5053271;28;20200;-60
2023/11/21 02:53:58;;;;;;;4.07;1.20;;;18.10;54.50;;;;;;5053515;28;20238;-60
2023/11/21 02:56:26;;;;;;;3.88;0.82;;;18.10;54.50;;;;;;5053425;28;20216;-59
2023/11/21 02:58:57;;;;;;;4.93;1.40;;;18.10;54.50;;;;;;5053413;28;20219;-59
2023/11/21 03:01:24;;;;;;;2.50;1.10;;;18.10;54.50;;;;;;5053390;28;20191;-60
2023/11/21 03:03:52;;;;;;;3.78;1.10;;;18.10;54.50;;;;;;5053333;28;20223;-59
2023/11/21 03:06:19;;;;;;;2.65;1.00;;;18.10;54.50;;;;;;5053094;28;20573;-60
2023/11/21 03:08:46;;;;;;;2.33;0.95;;;18.10;54.50;;;;;;5053263;28;20655;-60
2023/11/21 03:11:13;;;;;;;2.92;0.90;;;18.10;54.50;;;;;;5053426;28;20290;-59
2023/11/21 03:13:41;;;;;;;4.97;1.30;;;18.10;54.50;;;;;;5053215;28;20223;-60
2023/11/21 03:16:10;;;;;;;5.00;1.08;;;18.10;54.50;;;;;;5052995;28;20227;-61
2023/11/21 03:18:37;;;;;;;5.10;1.10;;;18.10;54.50;;;;;;5052761;28;20254;-59
2023/11/21 03:21:04;;;;;;;4.30;1.17;;;18.10;54.50;;;;;;5052676;28;20561;-60
2023/11/21 03:23:31;;;;;;;3.08;1.27;;;18.10;54.40;;;;;;5052333;28;20216;-60
2023/11/21 03:25:59;;;;;;;2.03;1.02;;;18.00;54.30;;;;;;5052954;28;20192;-59
2023/11/21 03:28:26;;;;;;;2.92;1.20;;;18.10;54.40;;;;;;5052449;28;20222;-57
2023/11/21 03:30:53;;;;;;;3.30;1.15;;;18.10;54.40;;;;;;5052868;28;20278;-61
2023/11/21 03:33:22;;;;;;;2.88;1.13;;;18.10;54.30;;;;;;5052715;28;20198;-58
2023/11/21 03:35:49;;;;;;;2.67;0.98;;;18.10;54.40;;;;;;5052781;28;20223;-60
2023/11/21 03:38:16;;;;;;;3.08;0.93;;;18.00;54.30;;;;;;5052637;28;20266;-60
2023/11/21 03:40:43;;;;;;;3.15;1.00;;;18.00;54.30;;;;;;5052688;28;20203;-59
2023/11/21 03:43:10;;;;;;;3.30;0.90;;;18.00;54.30;;;;;;5052677;28;20286;-60
2023/11/21 03:45:40;;;;;;;5.10;1.10;;;18.10;54.40;;;;;;5052646;28;20298;-60
2023/11/21 03:48:07;;;;;;;5.25;1.10;;;18.00;54.30;;;;;;5052461;28;20253;-60
2023/11/21 03:50:35;;;;;;;3.75;1.20;;;18.00;54.30;;;;;;5052224;28;20223;-59
2023/11/21 03:53:03;;;;;;;2.08;0.80;;;18.00;54.30;;;;;;5052849;28;20195;-60
2023/11/21 03:55:31;;;;;;;2.13;1.00;;;18.00;54.30;;;;;;5052383;28;20238;-61
2023/11/21 03:57:58;;;;;;;6.68;1.10;;;18.00;54.30;;;;;;5052380;28;20267;-60
2023/11/21 04:00:26;;;;;;;4.50;1.30;;;18.00;54.40;;;;;;5052348;28;20768;-57
2023/11/21 04:02:53;;;;;;;1.83;0.93;;;18.00;54.40;;;;;;5052341;28;20184;-61
2023/11/21 04:05:22;;;;;;;3.58;1.10;;;18.00;54.40;;;;;;5052612;28;20317;-58
2023/11/21 04:07:50;;;;;;;2.75;0.90;;;18.00;54.40;;;;;;5052047;28;20238;-57
2023/11/21 04:10:18;;;;;;;5.80;1.23;;;18.00;54.40;;;;;;5052494;28;20246;-60
2023/11/21 04:12:45;;;;;;;3.83;1.05;;;18.00;54.40;;;;;;5052275;28;20279;-60
2023/11/21 04:15:13;;;;;;;2.38;1.05;;;18.00;54.40;;;;;;5052364;28;20301;-59
2023/11/21 04:17:40;;;;;;;6.03;1.02;;;18.00;54.40;;;;;;5052243;28;20198;-61
2023/11/21 04:20:09;;;;;;;2.67;1.00;;;18.00;54.40;;;;;;5052302;28;20311;-58
2023/11/21 04:22:40;;;;;;;2.55;1.10;;;18.00;54.40;;;;;;5052170;28;20187;-60
2023/11/21 04:25:10;;;;;;;1.70;1.00;;;18.00;54.50;;;;;;5052047;28;20215;-59
2023/11/21 04:27:37;;;;;;;2.53;1.20;;;18.00;54.40;;;;;;5051781;28;20571;-62
2023/11/21 04:30:05;;;;;;;3.80;1.15;;;18.00;54.40;;;;;;5052237;28;20215;-59
2023/11/21 04:32:32;;;;;;;3.80;1.10;;;18.00;54.40;;;;;;5051786;28;20231;-59
2023/11/21 04:34:59;;;;;;;1.95;1.05;;;18.00;54.50;;;;;;5052902;28;20757;-60
2023/11/21 04:37:26;;;;;;;4.78;1.20;;;18.00;54.50;;;;;;5055718;28;20594;-60
2023/11/21 04:39:53;;;;;;;2.28;0.85;;;18.00;54.50;;;;;;5056201;28;20227;-60
2023/11/21 04:42:21;;;;;;;5.68;1.27;;;18.00;54.50;;;;;;5056022;28;20270;-61
2023/11/21 04:44:49;;;;;;;2.20;0.90;;;18.00;54.50;;;;;;5056087;28;20215;-60
2023/11/21 04:47:19;;;;;;;2.90;1.00;;;18.00;54.50;;;;;;5055985;28;20188;-59
2023/11/21 04:49:47;;;;;;;3.75;1.33;;;18.00;54.60;;;;;;5055922;28;20219;-60
2023/11/21 04:52:14;;;;;;;3.65;1.10;;;18.00;54.70;;;;;;5055842;28;20191;-60
2023/11/21 04:54:42;;;;;;;1.90;1.10;;;18.00;54.60;;;;;;5055941;28;20223;-59
2023/11/21 04:57:09;;;;;;;2.35;1.05;;;18.00;54.70;;;;;;5055400;28;20682;-60
2023/11/21 04:59:38;;;;;;;2.95;1.10;;;18.00;54.70;;;;;;5055426;28;20219;-60
2023/11/21 05:02:05;;;;;;;2.97;1.00;;;18.00;54.70;;;;;;5055648;28;20198;-59
2023/11/21 05:04:32;;;;;;;3.90;1.33;;;18.00;54.70;;;;;;5055421;28;20660;-59
2023/11/21 05:07:00;;;;;;;3.42;1.00;;;18.00;54.80;;;;;;5055221;28;20281;-59
2023/11/21 05:09:28;;;;;;;3.38;1.02;;;18.00;54.80;;;;;;5055664;28;20216;-60
2023/11/21 05:11:55;;;;;;;3.63;1.20;;;17.90;54.70;;;;;;5055229;28;20199;-60
2023/11/21 05:14:22;;;;;;;2.65;0.98;;;18.00;54.80;;;;;;5055560;28;20216;-60
2023/11/21 05:16:51;;;;;;;2.80;1.05;;;18.00;54.90;;;;;;5055336;28;20298;-59
2023/11/21 05:19:18;;;;;;;2.67;1.17;;;17.90;54.80;;;;;;5055328;28;20277;-60
2023/11/21 05:21:46;;;;;;;2.22;0.98;;;17.90;54.80;;;;;;5055308;28;20184;-60
2023/11/21 05:24:13;;;;;;;2.80;1.20;;;18.00;55.00;;;;;;5055313;28;20302;-60
2023/11/21 05:26:39;;;;;;;1.73;1.00;;;17.90;54.90;;;;;;5055249;28;20287;-60
2023/11/21 05:29:06;;;;;;;3.33;0.90;;;17.90;54.90;;;;;;5055204;28;20612;-60
2023/11/21 05:31:33;;;;;;;1.35;0.80;;;17.90;55.00;;;;;;5055153;28;20219;-60
2023/11/21 05:34:01;;;;;;;1.38;0.90;;;17.90;55.00;;;;;;5054872;28;20212;-60
2023/11/21 05:36:28;;;;;;;3.80;1.33;;;17.90;55.00;;;;;;5054888;28;20689;-60
2023/11/21 05:38:55;;;;;;;2.40;0.90;;;17.90;55.00;;;;;;5054981;28;20310;-59
2023/11/21 05:41:23;;;;;;;4.00;1.30;;;17.90;55.00;;;;;;5055010;28;20618;-60
2023/11/21 05:43:50;;;;;;;2.75;1.00;;;18.00;55.10;;;;;;5054864;28;20219;-61
2023/11/21 05:46:18;;;;;;;2.05;0.95;;;18.00;55.10;;;;;;5054430;28;20294;-60
2023/11/21 05:48:45;;;;;;;1.63;0.93;;;18.00;55.10;;;;;;5054280;28;20219;-60
2023/11/21 05:51:13;;;;;;;2.15;0.90;;;18.10;55.10;;;;;;5054539;28;20188;-60
2023/11/21 05:53:40;;;;;;;2.78;1.00;;;18.10;55.10;;;;;;5054888;28;20243;-60
2023/11/21 05:56:08;;;;;;;2.58;0.80;;;18.20;55.20;;;;;;5054291;28;20221;-60
2023/11/21 05:58:35;;;;;;;2.30;0.90;;;18.30;55.20;;;;;;5054564;28;20198;-60
2023/11/21 06:01:02;;;;;;;2.20;0.90;;;18.30;55.00;;;;;;5054240;28;20675;-61
2023/11/21 06:03:29;;;;;;;2.70;1.05;;;18.40;55.00;;;;;;5054186;28;20203;-60
2023/11/21 06:05:56;;;;;;;2.10;0.93;;;18.50;54.90;;;;;;5054160;28;20633;-61
2023/11/21 06:08:24;;;;;;;2.47;1.00;;;18.50;54.80;;;;;;5053946;28;20699;-61
2023/11/21 06:10:51;;;;;;;3.05;1.25;;;18.60;54.60;;;;;;5054650;28;20214;-58
2023/11/21 06:13:20;;;;;;;2.70;0.95;;;18.70;54.50;;;;;;5054344;28;20206;-60
2023/11/21 06:15:47;;;;;;;2.88;0.90;;;18.70;54.50;;;;;;5054328;28;20318;-60
2023/11/21 06:18:14;;;;;;;1.52;0.88;;;18.80;54.60;;;;;;5054158;28;20210;-60
2023/11/21 06:20:41;;;;;;;1.88;1.20;;;18.80;55.20;;;;;;5054441;28;20241;-60
2023/11/21 06:23:09;;;;;;;2.83;0.85;;;18.80;54.60;;;;;;5054152;28;20267;-61
2023/11/21 06:25:37;;;;;;;3.17;1.00;;;18.90;54.70;;;;;;5054008;28;20224;-61
2023/11/21 06:28:05;;;;;;;2.88;1.05;;;18.90;54.60;;;;;;5054066;28;20295;-59
2023/11/21 06:30:32;;;;;;;1.83;0.80;;;19.00;54.60;;;;;;5053865;28;20773;-60
2023/11/21 06:32:59;;;;;;;2.00;1.00;;;19.00;54.50;;;;;;5054015;28;20184;-61
2023/11/21 06:35:27;;;;;;;2.45;1.10;;;19.00;54.40;;;;;;5054083;28;20215;-57
2023/11/21 06:37:54;;;;;;;1.33;1.00;;;19.00;54.40;;;;;;5053719;28;20215;-61
2023/11/21 06:40:21;;;;;;;2.53;0.98;;;19.00;54.30;;;;;;5054024;28;20226;-60
2023/11/21 06:42:50;;;;;;;2.92;0.95;;;19.10;54.40;;;;;;5053772;28;20192;-61
2023/11/21 06:45:17;;;;;;;1.85;0.75;;;19.10;54.30;;;;;;5053899;28;20566;-60
2023/11/21 06:47:44;;;;;;;1.83;0.90;;;19.10;54.20;;;;;;5053319;28;20748;-61
2023/11/21 06:50:11;;;;;;;2.10;1.08;;;19.10;54.20;;;;;;5053794;28;20306;-59
2023/11/21 06:52:39;;;;;;;1.67;0.80;;;19.10;54.10;;;;;;5053581;28;20195;-60
2023/11/21 06:55:08;;;;;;;2.70;1.00;;;19.20;54.20;;;;;;5053409;28;20230;-61
2023/11/21 06:57:35;;;;;;;3.83;0.90;;;19.20;54.10;;;;;;5053329;28;20215;-60
2023/11/21 07:00:06;;;;;;;2.47;1.00;;;19.20;54.10;;;;;;5052601;28;20215;-60
2023/11/21 07:02:33;;;;;;;1.33;0.90;;;19.30;54.10;;;;;;5053402;28;20600;-59
2023/11/21 07:05:00;;;;;;;1.40;0.70;;;19.30;54.10;;;;;;5053481;28;20216;-60
2023/11/21 07:07:28;;;;;;;2.97;1.00;;;19.30;54.10;;;;;;5053013;28;20227;-61
2023/11/21 07:09:55;;;;;;;3.00;1.00;;;19.20;53.90;;;;;;5053707;28;20311;-59
2023/11/21 07:12:23;;;;;;;1.98;1.13;;;19.30;54.00;;;;;;5053216;28;20278;-60
2023/11/21 07:14:50;;;;;;;1.92;0.90;;;19.30;54.00;;;;;;5053339;28;20220;-61
2023/11/21 07:17:18;;;;;;;1.42;0.90;;;19.30;53.90;;;;;;5053054;28;20261;-59
2023/11/21 07:19:45;;;;;;;3.33;0.90;;;19.30;53.90;;;;;;5052864;28;20302;-60
2023/11/21 07:22:13;;;;;;;1.00;0.80;;;19.30;53.90;;;;;;5053315;28;20195;-60
2023/11/21 07:24:40;;;;;;;2.65;0.80;;;19.30;53.90;;;;;;5052803;28;20701;-60
2023/11/21 07:27:07;;;;;;;2.15;1.10;;;19.30;53.90;;;;;;5052995;28;20560;-61
2023/11/21 07:29:34;;;;;;;2.92;1.00;;;19.30;53.90;;;;;;5052598;28;20666;-60
2023/11/21 07:32:01;;;;;;;4.03;1.17;;;19.30;53.80;;;;;;5052871;28;20275;-61
2023/11/21 07:34:29;;;;;;;2.17;0.90;;;19.30;53.80;;;;;;5052431;28;20223;-61
2023/11/21 07:36:56;;;;;;;3.05;0.85;;;19.30;53.80;;;;;;5052702;28;20222;-60
2023/11/21 07:39:23;;;;;;;2.03;0.80;;;19.40;53.90;;;;;;5052757;28;20218;-61
2023/11/21 07:41:50;;;;;;;1.88;0.90;;;19.40;53.80;;;;;;5050978;28;20557;-59
2023/11/21 07:44:19;;;;;;;1.75;0.90;;;19.40;53.80;;;;;;5052593;28;20219;-61
2023/11/21 07:46:46;;;;;;;2.90;0.90;;;19.40;53.80;;;;;;5052197;28;20278;-60
2023/11/21 07:49:15;;;;;;;2.08;0.80;;;19.40;53.70;;;;;;5052414;28;20713;-60
2023/11/21 07:51:44;;;;;;;3.17;1.02;;;19.40;53.70;;;;;;5055550;28;20273;-58
2023/11/21 07:54:11;;;;;;;1.20;0.90;;;19.40;53.60;;;;;;5055546;28;20229;-62
2023/11/21 07:56:38;;;;;;;4.72;1.00;;;19.40;53.60;;;;;;5051017;28;20186;-59
2023/11/21 07:59:05;;;;;;;2.38;1.00;;;19.40;53.60;;;;;;5057835;28;20222;-59
2023/11/21 08:01:32;;;;;;;1.83;1.05;;;19.40;53.70;;;;;;5069910;28;20183;-60
2023/11/21 08:04:03;;;;;;;2.08;1.08;;;19.40;53.70;;;;;;5070682;28;20216;-61
2023/11/21 08:06:30;;;;;;;3.03;1.02;;;19.40;53.70;;;;;;5070716;28;20219;-62
2023/11/21 08:08:58;;;;;;;3.95;1.30;;;19.40;53.70;;;;;;5070016;28;20214;-61
2023/11/21 08:11:26;;;;;;;2.20;0.80;;;19.40;53.70;;;;;;5070727;28;20230;-61
2023/11/21 08:13:53;;;;;;;2.85;1.10;;;19.40;53.70;;;;;;5071086;28;20786;-60
2023/11/21 08:16:20;;;;;;;1.70;1.10;;;19.40;53.70;;;;;;5071444;28;20191;-61
2023/11/21 08:18:47;;;;;;;2.78;1.10;;;19.40;53.70;;;;;;5069311;28;20227;-61
2023/11/21 08:21:14;;;;;;;3.05;1.23;;;19.40;53.80;;;;;;5071303;28;20277;-61
2023/11/21 08:23:41;;;;;;;3.15;1.00;;;19.50;53.70;;;;;;5063915;28;20619;-60
2023/11/21 08:26:09;;;;;;;2.75;1.13;;;19.50;53.70;;;;;;5054334;28;20278;-61
2023/11/21 08:28:36;;;;;;;5.18;1.30;;;19.50;53.60;;;;;;5050675;28;20257;-61
2023/11/21 08:31:04;;;;;;;6.72;1.23;;;19.50;53.80;;;;;;5066004;28;20202;-59
2023/11/21 08:33:31;;;;;;;2.75;1.20;;;19.60;53.90;;;;;;5060172;28;20283;-60
2023/11/21 08:36:01;;;;;;;5.93;1.23;;;19.60;53.90;;;;;;5050751;28;20227;-60
2023/11/21 08:38:28;;;;;;;3.45;1.00;;;19.60;53.90;;;;;;5050804;28;20246;-61
2023/11/21 08:40:55;;;;;;;4.40;1.10;;;19.60;53.80;;;;;;5066007;28;20233;-61
2023/11/21 08:43:24;;;;;;;6.20;1.02;;;19.60;53.70;;;;;;5068212;28;20203;-61
2023/11/21 08:45:51;;;;;;;3.95;1.15;;;19.60;53.70;;;;;;5067918;28;20244;-62
2023/11/21 08:48:18;;;;;;;4.43;1.15;;;19.60;53.70;;;;;;5070213;28;20191;-60
2023/11/21 08:50:45;;;;;;;3.03;1.20;;;19.60;53.60;;;;;;5070266;28;20246;-61
2023/11/21 08:53:12;;;;;;;2.42;1.05;;;19.60;53.50;;;;;;5070760;28;20189;-58
2023/11/21 08:55:40;;;;;;;2.85;1.05;;;19.70;53.50;;;;;;5068393;28;20305;-61
2023/11/21 08:58:07;;;;;;;2.78;1.10;;;19.70;53.50;;;;;;5070129;28;20233;-61
2023/11/21 09:00:36;;;;;;;3.13;1.40;;;19.70;53.40;;;;;;5070659;28;20305;-59
2023/11/21 09:03:11;;;;;;;2.45;1.10;;;19.70;53.30;;;;;;5070391;28;20274;-57
2023/11/21 09:05:42;;;;;;;2.05;1.17;;;19.70;53.30;;;;;;5069749;28;20264;-58
2023/11/21 09:08:09;;;;;;;2.63;1.05;;;19.70;53.30;;;;;;5070081;28;20226;-58
2023/11/21 09:10:36;;;;;;;3.03;1.00;;;19.70;53.10;;;;;;5068397;28;20302;-55
2023/11/21 09:13:08;;;;;;;1.70;0.82;;;19.70;53.10;;;;;;5068973;28;20656;-58
2023/11/21 09:15:46;;;;;;;2.20;1.10;;;19.70;53.10;;;;;;5068572;28;20333;-60
2023/11/21 09:18:16;;;;;;;4.25;1.10;;;19.70;53.00;;;;;;5069554;28;20771;-56
2023/11/21 09:20:44;;;;;;;4.63;1.08;;;19.70;53.00;;;;;;5088823;28;20301;-58
2023/11/21 09:23:13;;;;;;;5.05;0.93;;;19.70;53.10;;;;;;5083311;28;20270;-60
2023/11/21 09:25:40;;;;;;;3.78;1.10;;;19.70;53.10;;;;;;5063665;28;20589;-59
2023/11/21 09:28:08;;;;;;;5.07;1.17;;;19.70;53.00;;;;;;5051846;28;20188;-54
2023/11/21 09:30:35;;;;;;;3.83;1.48;;;19.70;53.10;;;;;;5071236;28;20218;-55
2023/11/21 09:33:10;;;;;;;3.85;1.33;;;19.70;53.00;;;;;;5071046;28;20222;-56
2023/11/21 09:35:40;;;;;;;3.50;1.13;;;19.70;52.90;;;;;;5062838;28;20712;-58
2023/11/21 09:38:10;;;;;;;4.78;1.10;;;19.70;52.90;;;;;;5070278;28;20218;-59
2023/11/21 09:40:38;;;;;;;1.98;0.75;;;19.70;52.90;;;;;;5071723;28;20213;-57
2023/11/21 09:43:15;;;;;;;2.08;1.00;;;19.70;52.80;;;;;;5072936;28;20191;-62
2023/11/21 09:45:47;;;;;;;4.65;0.98;;;19.70;52.80;;;;;;5067881;28;20215;-61
2023/11/21 09:48:19;;;;;;;5.78;1.08;;;19.70;52.80;;;;;;5085518;28;20202;-60
2023/11/21 09:50:49;;;;;;;2.60;1.08;;;19.70;52.70;;;;;;5065076;28;20276;-60
2023/11/21 09:53:20;;;;;;;5.43;1.75;;;19.70;52.70;;;;;;5060171;28;20436;-62
2023/11/21 09:55:50;;;;;;;1.33;0.85;;;19.80;52.70;;;;;;5070955;28;20785;-61
2023/11/21 09:58:20;;;;;;;2.95;1.15;;;19.80;52.70;;;;;;5071448;28;20215;-61
2023/11/21 10:00:50;;;;;;;6.30;1.20;;;19.80;52.60;;;;;;5071904;28;20311;-62
2023/11/21 10:03:18;;;;;;;3.97;1.00;;;19.80;52.60;;;;;;5071185;28;20712;-61
2023/11/21 10:05:47;;;;;;;5.20;1.10;;;19.80;52.50;;;;;;5072029;28;20297;-63
2023/11/21 10:08:14;;;;;;;2.38;1.25;;;19.80;52.40;;;;;;5070195;28;20235;-62
2023/11/21 10:10:45;;;;;;;4.82;1.10;;;19.80;52.40;;;;;;5071296;28;20767;-60
2023/11/21 10:13:16;;;;;;;3.75;1.10;;;19.80;52.30;;;;;;5072073;28;20187;-61
2023/11/21 10:15:48;;;;;;;1.77;1.20;;;19.90;52.40;;;;;;5071965;28;20663;-64
2023/11/21 10:18:16;;;;;;;3.88;1.27;;;19.90;52.40;;;;;;5071233;28;20765;-61
2023/11/21 10:20:51;;;;;;;3.42;1.15;;;19.90;52.40;;;;;;5072665;28;20297;-61
2023/11/21 10:23:20;;;;;;;4.13;1.00;;;19.90;52.40;;;;;;5071409;28;20187;-61
2023/11/21 10:26:16;;;;;;;4.57;1.20;;;19.90;52.40;;;;;;5070554;28;20319;-56
2023/11/21 10:28:58;;;;;;;2.60;1.13;;;19.90;52.50;;;;;;5067988;28;20195;-56
2023/11/21 10:31:32;;;;;;;1.55;0.88;;;19.90;52.30;;;;;;5071761;28;20205;-56
2023/11/21 10:34:18;;;;;;;2.63;1.10;;;19.90;52.20;;;;;;5051257;28;20226;-57
2023/11/21 10:36:48;;;;;;;3.53;0.90;;;19.90;52.10;;;;;;5069501;28;20198;-57
2023/11/21 10:39:18;;;;;;;2.67;1.10;;;19.90;52.10;;;;;;5071489;28;20211;-56
2023/11/21 10:41:46;;;;;;;5.20;1.30;;;19.90;52.10;;;;;;5070598;28;20277;-56
2023/11/21 10:44:20;;;;;;;3.50;1.25;;;20.00;52.10;;;;;;5072570;28;20182;-58
2023/11/21 10:46:50;;;;;;;6.22;1.17;;;20.00;51.90;;;;;;5072360;28;20661;-58
2023/11/21 10:49:18;;;;;;;2.65;0.85;;;20.00;52.10;;;;;;5071636;28;20193;-58
2023/11/21 10:51:48;;;;;;;5.75;1.00;;;20.00;52.00;;;;;;5071599;28;20194;-61
2023/11/21 10:54:18;;;;;;;1.92;0.77;;;20.00;52.20;;;;;;5067849;28;20191;-62
2023/11/21 10:56:47;;;;;;;3.55;1.10;;;20.00;52.20;;;;;;5069200;28;20190;-59
2023/11/21 10:59:16;;;;;;;2.42;0.80;;;20.00;52.00;;;;;;5070831;28;20576;-60
2023/11/21 11:01:45;;;;;;;4.15;1.02;;;20.00;51.90;;;;;;5071397;28;20273;-61
2023/11/21 11:04:16;;;;;;;4.07;1.10;;;20.00;51.80;;;;;;5072174;28;20274;-62
2023/11/21 11:06:46;;;;;;;2.05;0.90;;;20.00;51.80;;;;;;5091192;28;20229;-61
2023/11/21 11:09:16;;;;;;;3.83;1.20;;;20.10;51.80;;;;;;5078208;28;20649;-58
2023/11/21 11:11:44;;;;;;;2.88;1.00;;;20.10;51.80;;;;;;5083355;28;20248;-58
2023/11/21 11:14:12;;;;;;;2.13;0.80;;;20.10;51.70;;;;;;5071766;28;20194;-58
2023/11/21 11:16:40;;;;;;;2.13;0.88;;;20.00;51.50;;;;;;5070967;28;20198;-58
2023/11/21 11:19:08;;;;;;;2.92;0.75;;;20.10;51.50;;;;;;5069737;28;20215;-59
2023/11/21 11:21:53;;;;;;;4.25;1.10;;;20.10;51.30;;;;;;5071529;28;20221;-55
2023/11/21 11:24:55;;;;;;;2.58;1.00;;;20.00;51.30;;;;;;5070798;28;20273;-59
2023/11/21 11:27:34;;;;;;;2.85;1.60;;;20.00;51.00;;;;;;5070459;28;20668;-59
2023/11/21 11:30:17;;;;;;;2.47;1.00;;;20.00;51.20;;;;;;5091593;28;20213;-58
2023/11/21 11:32:56;;;;;;;4.85;1.15;;;20.00;51.10;;;;;;5090195;28;21038;-59
2023/11/21 11:35:31;;;;;;;1.77;1.00;;;20.00;50.90;;;;;;5071793;28;20295;-59
2023/11/21 11:38:00;;;;;;;2.97;1.00;;;20.00;50.90;;;;;;5071075;28;20276;-57
2023/11/21 11:40:42;;;;;;;3.25;1.17;;;20.00;50.90;;;;;;5071529;28;20219;-58
2023/11/21 11:43:09;;;;;;;2.78;1.15;;;20.00;50.90;;;;;;5071581;28;20601;-59
2023/11/21 11:45:37;;;;;;;2.45;0.88;;;20.10;51.00;;;;;;5069328;28;20227;-60
2023/11/21 11:48:07;;;;;;;2.35;1.00;;;20.00;50.90;;;;;;5070471;28;20215;-55
2023/11/21 11:50:35;;;;;;;1.45;1.05;;;20.00;50.90;;;;;;5070833;28;20305;-57
2023/11/21 11:53:16;;;;;;;3.75;0.70;;;20.10;50.90;;;;;;5072864;28;20194;-59
2023/11/21 11:55:43;;;;;;;2.50;0.77;;;20.10;50.90;;;;;;5091054;28;20718;-59
2023/11/21 11:58:11;;;;;;;4.10;1.10;;;20.00;50.80;;;;;;5090851;28;20202;-57
2023/11/21 12:00:39;;;;;;;2.50;0.80;;;20.00;50.70;;;;;;5091630;28;20218;-60
2023/11/21 12:03:10;;;;;;;2.05;0.80;;;20.00;50.70;;;;;;5090444;28;20193;-55
2023/11/21 12:05:45;;;;;;;4.82;1.02;;;20.00;50.60;;;;;;5091139;28;20218;-58
2023/11/21 12:08:14;;;;;;;2.40;1.10;;;20.00;50.60;;;;;;5090185;28;20414;-58
2023/11/21 12:10:42;;;;;;;1.90;1.02;;;20.00;50.50;;;;;;5091292;28;20300;-57
2023/11/21 12:13:19;;;;;;;1.67;1.02;;;20.00;50.50;;;;;;5091168;28;20193;-58
2023/11/21 12:15:49;;;;;;;2.83;1.00;;;20.00;50.50;;;;;;5091393;28;20218;-59
2023/11/21 12:18:16;;;;;;;1.85;1.10;;;20.00;50.50;;;;;;5090198;28;20213;-58
2023/11/21 12:20:46;;;;;;;3.00;1.00;;;20.00;50.40;;;;;;5072906;28;20708;-56
2023/11/21 12:23:16;;;;;;;2.80;1.00;;;20.00;50.30;;;;;;5070507;28;20199;-57
2023/11/21 12:25:44;;;;;;;1.15;0.68;;;20.00;50.20;;;;;;5071484;28;20215;-54
2023/11/21 12:28:12;;;;;;;1.20;0.80;;;20.00;50.20;;;;;;5070833;28;20191;-55
2023/11/21 12:30:41;;;;;;;1.90;0.80;;;20.00;50.20;;;;;;5070886;28;20219;-59
2023/11/21 12:33:09;;;;;;;1.23;0.80;;;20.00;50.20;;;;;;5070231;28;20230;-56
2023/11/21 12:35:37;;;;;;;1.52;0.90;;;20.00;50.20;;;;;;5070575;28;20223;-56
2023/11/21 12:38:05;;;;;;;2.10;0.80;;;20.00;50.20;;;;;;5067937;28;20201;-60
2023/11/21 12:40:34;;;;;;;3.72;1.20;;;20.00;50.20;;;;;;5050276;28;20215;-59
2023/11/21 12:43:03;;;;;;;1.50;0.77;;;20.00;50.10;;;;;;5067562;28;20252;-59
2023/11/21 12:45:37;;;;;;;1.65;0.80;;;20.00;50.20;;;;;;5067236;28;20229;-55
2023/11/21 12:48:08;;;;;;;2.30;0.88;;;20.00;50.20;;;;;;5053629;28;20198;-57
2023/11/21 12:50:36;;;;;;;4.28;1.00;;;20.00;50.30;;;;;;5063617;28;20404;-61
2023/11/21 12:53:05;;;;;;;3.70;0.82;;;20.00;50.40;;;;;;5057609;28;20866;-57
2023/11/21 12:55:37;;;;;;;2.60;1.00;;;20.00;50.20;;;;;;5055101;28;20223;-60